Time;durP1;ratioP1;P1;durP2;ratioP2;P2;SDS_P1;SDS_P2;PMS_P1;PMS_P2;Temp;Humidity;BMP_temperature;BMP_pressure;BME280_temperature;BME280_humidity;BME280_pressure;Samples;Min_cycle;Max_cycle;Signal;HPM_P1;HPM_P2
2023/07/31 00:01:58;;;;;;;7.80;4.50;;;;;;;;;;107402;1250;61738;-80
2023/07/31 00:04:25;;;;;;;6.30;4.70;;;;;;;;;;107376;1249;61243;-80
2023/07/31 00:06:51;;;;;;;5.90;4.40;;;;;;;;;;107433;1250;61307;-80
2023/07/31 00:09:17;;;;;;;8.60;4.60;;;;;;;;;;107309;1249;61376;-80
2023/07/31 00:11:44;;;;;;;5.50;4.30;;;;;;;;;;107402;1251;61231;-80
2023/07/31 00:14:10;;;;;;;7.50;4.50;;;;;;;;;;107392;1250;61256;-80
2023/07/31 00:16:36;;;;;;;9.30;5.10;;;;;;;;;;107398;1254;61297;-80
2023/07/31 00:19:03;;;;;;;7.60;4.90;;;;;;;;;;109192;1249;59075;-80
2023/07/31 00:21:29;;;;;;;5.10;4.10;;;;;;;;;;109922;1250;58839;-80
2023/07/31 00:23:55;;;;;;;7.30;4.60;;;;;;;;;;109908;1249;58842;-80
2023/07/31 00:26:22;;;;;;;7.50;4.70;;;;;;;;;;109902;1249;58932;-80
2023/07/31 00:28:48;;;;;;;10.20;5.20;;;;;;;;;;109375;1249;59006;-80
2023/07/31 00:31:14;;;;;;;6.40;4.40;;;;;;;;;;107430;1256;61433;-80
2023/07/31 00:33:41;;;;;;;7.80;4.00;;;;;;;;;;107373;1250;61304;-80
2023/07/31 00:36:07;;;;;;;5.20;3.90;;;;;;;;;;107407;1249;61230;-80
2023/07/31 00:38:34;;;;;;;6.80;4.70;;;;;;;;;;107460;1253;61270;-80
2023/07/31 00:41:00;;;;;;;6.20;4.20;;;;;;;;;;107452;1249;62766;-80
2023/07/31 00:43:26;;;;;;;10.60;4.70;;;;;;;;;;107469;1252;61235;-80
2023/07/31 00:45:53;;;;;;;8.00;4.20;;;;;;;;;;107476;1249;61320;-80
2023/07/31 00:48:19;;;;;;;6.00;3.90;;;;;;;;;;107463;1252;61244;-80
2023/07/31 00:50:45;;;;;;;7.40;4.30;;;;;;;;;;107470;1249;61317;-80
2023/07/31 00:53:13;;;;;;;7.60;4.70;;;;;;;;;;107434;1249;61443;-80
2023/07/31 00:55:39;;;;;;;5.50;3.90;;;;;;;;;;107398;1250;61224;-80
2023/07/31 00:58:05;;;;;;;5.30;3.60;;;;;;;;;;107902;1252;61234;-80
2023/07/31 01:00:32;;;;;;;5.60;4.40;;;;;;;;;;110008;1248;58789;-80
2023/07/31 01:02:58;;;;;;;6.90;4.00;;;;;;;;;;110013;1249;59069;-80
2023/07/31 01:05:25;;;;;;;7.00;4.10;;;;;;;;;;109883;1252;58947;-80
2023/07/31 01:07:51;;;;;;;5.60;4.40;;;;;;;;;;107684;1252;61077;-80
2023/07/31 01:10:20;;;;;;;7.70;4.40;;;;;;;;;;108926;1250;61401;-80
2023/07/31 01:12:46;;;;;;;10.50;4.20;;;;;;;;;;107605;1253;61343;-80
2023/07/31 01:15:14;;;;;;;6.30;4.50;;;;;;;;;;107430;1249;61292;-80
2023/07/31 01:17:44;;;;;;;5.30;3.90;;;;;;;;;;107451;1250;61256;-80
2023/07/31 01:20:15;;;;;;;6.40;4.80;;;;;;;;;;107377;1250;61225;-80
2023/07/31 01:23:00;;;;;;;8.70;4.10;;;;;;;;;;107477;1252;61389;-80
2023/07/31 01:25:26;;;;;;;7.50;3.90;;;;;;;;;;107394;1250;61250;-80
2023/07/31 01:28:00;;;;;;;9.00;4.50;;;;;;;;;;107442;1250;61215;-80
2023/07/31 01:30:27;;;;;;;6.80;4.20;;;;;;;;;;107479;1248;61276;-80
2023/07/31 01:32:54;;;;;;;6.10;4.40;;;;;;;;;;107606;1250;61218;-80
2023/07/31 01:35:20;;;;;;;7.70;4.30;;;;;;;;;;107538;1250;61320;-80
2023/07/31 01:37:47;;;;;;;6.80;4.40;;;;;;;;;;107392;1252;61226;-80
2023/07/31 01:40:13;;;;;;;5.10;3.80;;;;;;;;;;107478;1250;61278;-80
2023/07/31 01:42:39;;;;;;;5.50;4.10;;;;;;;;;;107447;1249;61274;-80
2023/07/31 01:45:06;;;;;;;6.80;4.10;;;;;;;;;;107405;1253;60350;-80
2023/07/31 01:47:32;;;;;;;5.30;4.10;;;;;;;;;;107387;1254;61333;-80
2023/07/31 01:49:58;;;;;;;7.30;4.20;;;;;;;;;;107443;1251;61250;-80
2023/07/31 01:52:25;;;;;;;5.90;3.70;;;;;;;;;;107410;1254;61799;-80
2023/07/31 01:54:52;;;;;;;8.90;4.30;;;;;;;;;;107426;1249;61284;-80
2023/07/31 01:57:18;;;;;;;7.60;3.60;;;;;;;;;;107374;1249;61206;-80
2023/07/31 01:59:44;;;;;;;7.30;3.60;;;;;;;;;;107403;1254;61187;-80
2023/07/31 02:02:11;;;;;;;5.60;3.80;;;;;;;;;;107435;1254;61270;-81
2023/07/31 02:04:39;;;;;;;5.10;3.80;;;;;;;;;;107405;1249;61353;-80
2023/07/31 02:07:05;;;;;;;5.50;4.00;;;;;;;;;;107366;1250;61225;-80
2023/07/31 02:09:32;;;;;;;9.70;5.00;;;;;;;;;;107363;1253;61228;-80
2023/07/31 02:11:58;;;;;;;8.60;3.70;;;;;;;;;;107392;1250;61242;-80
2023/07/31 02:14:25;;;;;;;5.80;4.00;;;;;;;;;;107411;1252;61286;-79
2023/07/31 02:16:51;;;;;;;5.10;4.00;;;;;;;;;;107447;1254;61226;-80
2023/07/31 02:19:18;;;;;;;5.20;3.80;;;;;;;;;;107371;1249;61197;-80
2023/07/31 02:21:44;;;;;;;9.40;4.80;;;;;;;;;;107372;1249;61164;-80
2023/07/31 02:24:10;;;;;;;8.20;4.10;;;;;;;;;;107431;1250;61221;-80
2023/07/31 02:26:37;;;;;;;6.30;4.10;;;;;;;;;;109527;1249;58984;-80
2023/07/31 02:29:03;;;;;;;8.00;4.70;;;;;;;;;;109402;1250;61437;-80
2023/07/31 02:31:30;;;;;;;6.00;4.60;;;;;;;;;;107410;1250;61322;-80
2023/07/31 02:33:56;;;;;;;8.50;3.70;;;;;;;;;;107395;1250;61259;-79
2023/07/31 02:36:22;;;;;;;7.10;4.10;;;;;;;;;;107379;1250;59254;-80
2023/07/31 02:38:49;;;;;;;6.60;4.70;;;;;;;;;;107380;1250;61364;-80
2023/07/31 02:41:15;;;;;;;7.10;4.30;;;;;;;;;;107442;1252;61342;-80
2023/07/31 02:43:42;;;;;;;8.80;4.50;;;;;;;;;;107418;1250;61356;-80
2023/07/31 02:46:09;;;;;;;6.30;4.30;;;;;;;;;;107439;1250;61254;-80
2023/07/31 02:48:36;;;;;;;8.30;4.00;;;;;;;;;;107475;1249;61362;-80
2023/07/31 02:51:02;;;;;;;9.60;7.90;;;;;;;;;;107410;1250;61328;-80
2023/07/31 02:53:29;;;;;;;19.40;14.50;;;;;;;;;;107420;1252;61209;-80
2023/07/31 02:55:55;;;;;;;8.90;5.70;;;;;;;;;;107648;1250;61358;-80
2023/07/31 02:58:22;;;;;;;5.40;4.70;;;;;;;;;;107428;1252;61220;-80
2023/07/31 03:00:48;;;;;;;6.50;4.20;;;;;;;;;;107432;1251;61942;-80
2023/07/31 03:03:14;;;;;;;9.10;4.20;;;;;;;;;;107438;1249;61433;-80
2023/07/31 03:05:41;;;;;;;8.70;4.30;;;;;;;;;;107530;1249;61235;-80
2023/07/31 03:08:07;;;;;;;10.20;4.60;;;;;;;;;;107676;1252;61333;-80
2023/07/31 03:10:33;;;;;;;9.30;4.20;;;;;;;;;;110018;1249;59057;-80
2023/07/31 03:13:00;;;;;;;5.10;4.00;;;;;;;;;;109992;1248;59260;-80
2023/07/31 03:15:26;;;;;;;6.30;4.40;;;;;;;;;;110012;1250;58873;-80
2023/07/31 03:17:52;;;;;;;6.20;3.50;;;;;;;;;;109995;1250;58990;-80
2023/07/31 03:20:19;;;;;;;4.00;3.10;;;;;;;;;;109988;1250;58895;-80
2023/07/31 03:22:45;;;;;;;4.20;2.40;;;;;;;;;;107495;1250;61337;-80
2023/07/31 03:25:12;;;;;;;3.00;2.30;;;;;;;;;;107560;1250;61682;-80
2023/07/31 03:27:38;;;;;;;5.90;2.00;;;;;;;;;;107451;1250;61220;-80
2023/07/31 03:30:06;;;;;;;3.20;2.00;;;;;;;;;;107414;1250;61329;-80
2023/07/31 03:32:32;;;;;;;2.50;2.10;;;;;;;;;;107385;1252;61274;-80
2023/07/31 03:34:59;;;;;;;4.30;2.30;;;;;;;;;;107490;1251;61360;-80
2023/07/31 03:37:26;;;;;;;3.40;2.30;;;;;;;;;;107418;1250;61308;-80
2023/07/31 03:39:52;;;;;;;3.20;2.10;;;;;;;;;;107421;1251;61083;-80
2023/07/31 03:42:19;;;;;;;3.60;2.10;;;;;;;;;;107473;1249;61208;-80
2023/07/31 03:44:45;;;;;;;13.20;9.90;;;;;;;;;;107446;1251;61098;-80
2023/07/31 03:47:11;;;;;;;12.30;11.00;;;;;;;;;;107374;1256;61468;-80
2023/07/31 03:49:38;;;;;;;6.80;6.10;;;;;;;;;;107421;1249;61300;-80
2023/07/31 03:52:04;;;;;;;4.30;3.90;;;;;;;;;;107320;1250;61341;-80
2023/07/31 03:54:31;;;;;;;3.30;2.50;;;;;;;;;;107355;1249;61376;-80
2023/07/31 03:56:57;;;;;;;4.20;3.40;;;;;;;;;;107348;1250;61241;-80
2023/07/31 03:59:23;;;;;;;2.80;2.50;;;;;;;;;;107387;1250;61267;-80
2023/07/31 04:01:50;;;;;;;2.70;2.20;;;;;;;;;;107407;1252;61363;-80
2023/07/31 04:04:16;;;;;;;5.20;1.90;;;;;;;;;;107436;1249;61229;-80
2023/07/31 04:06:42;;;;;;;3.40;2.10;;;;;;;;;;107476;1250;61252;-81
2023/07/31 04:09:09;;;;;;;2.30;2.10;;;;;;;;;;107398;1250;61270;-80
2023/07/31 04:11:35;;;;;;;3.60;2.10;;;;;;;;;;107419;1254;61240;-80
2023/07/31 04:14:01;;;;;;;3.30;2.30;;;;;;;;;;107374;1250;61342;-80
2023/07/31 04:16:28;;;;;;;3.70;2.40;;;;;;;;;;107382;1250;61244;-80
2023/07/31 04:18:54;;;;;;;2.60;2.00;;;;;;;;;;107364;1256;61325;-80
2023/07/31 04:21:20;;;;;;;3.80;2.10;;;;;;;;;;107357;1249;61338;-80
2023/07/31 04:23:47;;;;;;;2.40;1.60;;;;;;;;;;107405;1250;59331;-80
2023/07/31 04:26:13;;;;;;;6.00;2.40;;;;;;;;;;107342;1249;61237;-80
2023/07/31 04:28:40;;;;;;;6.20;4.50;;;;;;;;;;107399;1254;61191;-80
2023/07/31 04:31:06;;;;;;;31.20;15.00;;;;;;;;;;107374;1254;61595;-80
2023/07/31 04:33:33;;;;;;;59.50;27.80;;;;;;;;;;107350;1254;61330;-80
2023/07/31 04:35:59;;;;;;;64.60;29.90;;;;;;;;;;107375;1249;61200;-80
2023/07/31 04:38:26;;;;;;;53.70;24.90;;;;;;;;;;107397;1254;61341;-80
2023/07/31 04:40:52;;;;;;;65.20;31.40;;;;;;;;;;107340;1253;61336;-80
2023/07/31 04:43:18;;;;;;;57.30;27.60;;;;;;;;;;107411;1250;61260;-80
2023/07/31 04:45:46;;;;;;;65.70;33.30;;;;;;;;;;107413;1253;61330;-80
2023/07/31 04:48:13;;;;;;;36.40;19.50;;;;;;;;;;107532;1250;61910;-80
2023/07/31 04:50:39;;;;;;;35.10;17.90;;;;;;;;;;107318;1250;61365;-80
2023/07/31 04:53:06;;;;;;;21.00;11.30;;;;;;;;;;107397;1249;61319;-80
2023/07/31 04:55:32;;;;;;;10.40;5.50;;;;;;;;;;107372;1250;61308;-80
2023/07/31 04:57:59;;;;;;;8.70;5.20;;;;;;;;;;107348;1254;61350;-80
2023/07/31 05:00:25;;;;;;;5.40;3.50;;;;;;;;;;107389;1250;61254;-80
2023/07/31 05:02:51;;;;;;;28.00;18.30;;;;;;;;;;107332;1254;61269;-80
2023/07/31 05:05:18;;;;;;;19.90;13.40;;;;;;;;;;107458;1249;61356;-80
2023/07/31 05:07:44;;;;;;;9.00;7.00;;;;;;;;;;107481;1249;62757;-80
2023/07/31 05:10:11;;;;;;;6.60;3.40;;;;;;;;;;107461;1253;61238;-80
2023/07/31 05:12:37;;;;;;;5.50;3.10;;;;;;;;;;107397;1253;61117;-80
2023/07/31 05:15:04;;;;;;;4.50;2.70;;;;;;;;;;107346;1254;61168;-80
2023/07/31 05:17:30;;;;;;;5.20;3.10;;;;;;;;;;107351;1250;61228;-80
2023/07/31 05:19:57;;;;;;;4.70;3.30;;;;;;;;;;107403;1250;61247;-80
2023/07/31 05:22:23;;;;;;;5.40;2.70;;;;;;;;;;107355;1249;61347;-80
2023/07/31 05:24:49;;;;;;;5.40;2.80;;;;;;;;;;107346;1250;61282;-80
2023/07/31 05:27:18;;;;;;;6.40;3.30;;;;;;;;;;107370;1250;61251;-80
2023/07/31 05:29:45;;;;;;;5.50;3.30;;;;;;;;;;107276;1256;61341;-80
2023/07/31 05:32:11;;;;;;;7.00;3.30;;;;;;;;;;107390;1251;61209;-80
2023/07/31 05:34:38;;;;;;;8.00;3.40;;;;;;;;;;107396;1253;61166;-80
2023/07/31 05:37:04;;;;;;;5.60;3.00;;;;;;;;;;107393;1253;61120;-80
2023/07/31 05:39:32;;;;;;;4.80;2.10;;;;;;;;;;107342;1254;61402;-80
2023/07/31 05:41:58;;;;;;;7.70;2.80;;;;;;;;;;107396;1250;61372;-80
2023/07/31 05:44:24;;;;;;;5.60;3.30;;;;;;;;;;107360;1253;61258;-80
2023/07/31 05:46:51;;;;;;;6.40;2.70;;;;;;;;;;107400;1251;61297;-80
2023/07/31 05:49:17;;;;;;;5.50;3.30;;;;;;;;;;107348;1254;61323;-80
2023/07/31 05:51:43;;;;;;;6.40;3.00;;;;;;;;;;107408;1253;61336;-80
2023/07/31 05:54:10;;;;;;;8.90;3.40;;;;;;;;;;107395;1252;61353;-80
2023/07/31 05:56:36;;;;;;;8.50;3.20;;;;;;;;;;107449;1249;61340;-80
2023/07/31 05:59:02;;;;;;;5.80;3.10;;;;;;;;;;107372;1255;61200;-80
2023/07/31 06:01:29;;;;;;;6.20;3.50;;;;;;;;;;107429;1250;60278;-80
2023/07/31 06:03:55;;;;;;;5.80;3.00;;;;;;;;;;107353;1251;61250;-80
2023/07/31 06:06:21;;;;;;;6.90;3.10;;;;;;;;;;107517;1251;61356;-80
2023/07/31 06:08:48;;;;;;;7.60;3.10;;;;;;;;;;107641;1250;61310;-80
2023/07/31 06:11:16;;;;;;;6.10;2.80;;;;;;;;;;107751;1254;61122;-80
2023/07/31 06:13:44;;;;;;;7.30;3.70;;;;;;;;;;107486;1254;62895;-80
2023/07/31 06:16:10;;;;;;;6.70;2.90;;;;;;;;;;107834;1251;59173;-81
2023/07/31 06:18:38;;;;;;;4.80;2.70;;;;;;;;;;107710;1251;61317;-81
2023/07/31 06:21:05;;;;;;;4.60;2.60;;;;;;;;;;107507;1251;61116;-80
2023/07/31 06:23:31;;;;;;;7.80;3.20;;;;;;;;;;107603;1255;61200;-80
2023/07/31 06:25:58;;;;;;;6.60;3.90;;;;;;;;;;107794;1257;61210;-80
2023/07/31 06:28:31;;;;;;;6.30;2.90;;;;;;;;;;107763;1251;62005;-80
2023/07/31 06:30:57;;;;;;;4.30;3.20;;;;;;;;;;107991;1253;61269;-80
2023/07/31 06:33:24;;;;;;;6.70;2.90;;;;;;;;;;108105;1251;61396;-80
2023/07/31 06:35:51;;;;;;;7.10;3.40;;;;;;;;;;108057;1254;62708;-80
2023/07/31 06:38:26;;;;;;;9.60;3.00;;;;;;;;;;107878;1250;61227;-80
2023/07/31 06:40:53;;;;;;;7.20;2.90;;;;;;;;;;107871;1251;61275;-80
2023/07/31 06:43:19;;;;;;;7.10;4.10;;;;;;;;;;107798;1251;59664;-80
2023/07/31 06:45:47;;;;;;;10.20;3.10;;;;;;;;;;107833;1250;61155;-80
2023/07/31 06:48:13;;;;;;;8.00;3.60;;;;;;;;;;107856;1249;61080;-80
2023/07/31 06:50:39;;;;;;;5.30;3.10;;;;;;;;;;107764;1251;61219;-80
2023/07/31 06:53:06;;;;;;;6.80;3.60;;;;;;;;;;107816;1251;61116;-80
2023/07/31 06:55:32;;;;;;;5.90;3.40;;;;;;;;;;107779;1263;61109;-80
2023/07/31 06:57:59;;;;;;;8.90;3.40;;;;;;;;;;107708;1254;61267;-80
2023/07/31 07:00:25;;;;;;;5.30;2.90;;;;;;;;;;107873;1251;61264;-80
2023/07/31 07:02:51;;;;;;;5.90;3.30;;;;;;;;;;107788;1251;62256;-80
2023/07/31 07:05:18;;;;;;;9.30;3.30;;;;;;;;;;107822;1250;61250;-80
2023/07/31 07:07:45;;;;;;;6.20;3.60;;;;;;;;;;107921;1253;61326;-80
2023/07/31 07:10:11;;;;;;;8.20;3.70;;;;;;;;;;107664;1251;168396;-80
2023/07/31 07:12:38;;;;;;;6.70;3.10;;;;;;;;;;107990;1253;60195;-80
2023/07/31 07:15:04;;;;;;;4.50;2.70;;;;;;;;;;107724;1254;61221;-80
2023/07/31 07:17:31;;;;;;;4.30;2.80;;;;;;;;;;107843;1254;61219;-80
2023/07/31 07:19:57;;;;;;;6.10;3.10;;;;;;;;;;107719;1250;61405;-80
2023/07/31 07:22:24;;;;;;;6.40;3.20;;;;;;;;;;107719;1251;61347;-80
2023/07/31 07:24:50;;;;;;;6.90;2.80;;;;;;;;;;107506;1251;61325;-80
2023/07/31 07:27:17;;;;;;;5.60;2.70;;;;;;;;;;107902;1254;61278;-80
2023/07/31 07:29:43;;;;;;;5.70;3.40;;;;;;;;;;107829;1253;61331;-80
2023/07/31 07:32:09;;;;;;;5.30;2.90;;;;;;;;;;107927;1251;61134;-80
2023/07/31 07:34:36;;;;;;;6.50;2.90;;;;;;;;;;107993;1253;62141;-80
2023/07/31 07:37:02;;;;;;;6.40;3.40;;;;;;;;;;107655;1251;60309;-80
2023/07/31 07:39:29;;;;;;;6.80;2.70;;;;;;;;;;107510;1251;62039;-80
2023/07/31 07:41:55;;;;;;;6.20;3.10;;;;;;;;;;107452;1250;62141;-80
2023/07/31 07:44:21;;;;;;;4.10;2.60;;;;;;;;;;107437;1253;62151;-80
2023/07/31 07:46:48;;;;;;;25.20;4.70;;;;;;;;;;107390;1251;60327;-80
2023/07/31 07:49:14;;;;;;;6.30;2.80;;;;;;;;;;107367;1254;62146;-80
2023/07/31 07:51:40;;;;;;;5.30;2.50;;;;;;;;;;107483;1251;62140;-80
2023/07/31 07:54:07;;;;;;;5.20;2.30;;;;;;;;;;107386;1251;62038;-80
2023/07/31 07:56:33;;;;;;;6.30;2.80;;;;;;;;;;107461;1253;60378;-80
2023/07/31 07:58:59;;;;;;;5.00;2.90;;;;;;;;;;108484;1253;62029;-81
2023/07/31 08:01:26;;;;;;;5.10;2.50;;;;;;;;;;107399;1251;62130;-80
2023/07/31 08:03:52;;;;;;;4.40;2.00;;;;;;;;;;107596;1254;60413;-80
2023/07/31 08:06:19;;;;;;;4.90;2.10;;;;;;;;;;107452;1251;61027;-80
2023/07/31 08:08:45;;;;;;;5.20;2.10;;;;;;;;;;107488;1251;62171;-80
2023/07/31 08:11:11;;;;;;;8.00;2.30;;;;;;;;;;107463;1251;62035;-80
2023/07/31 08:13:38;;;;;;;4.30;2.10;;;;;;;;;;107538;1254;62062;-81
2023/07/31 08:16:04;;;;;;;5.50;2.50;;;;;;;;;;107448;1253;62149;-80
2023/07/31 08:18:31;;;;;;;7.60;2.50;;;;;;;;;;107483;1251;62073;-80
2023/07/31 08:20:57;;;;;;;3.80;1.80;;;;;;;;;;107482;1253;62023;-80
2023/07/31 08:23:23;;;;;;;9.70;4.30;;;;;;;;;;107434;1254;61916;-80
2023/07/31 08:25:50;;;;;;;4.90;2.80;;;;;;;;;;107420;1250;62130;-80
2023/07/31 08:28:16;;;;;;;7.30;2.80;;;;;;;;;;107425;1253;62159;-80
2023/07/31 08:30:43;;;;;;;4.70;2.70;;;;;;;;;;107430;1254;62035;-80
2023/07/31 08:33:09;;;;;;;6.30;3.50;;;;;;;;;;107605;1251;60644;-80
2023/07/31 08:35:36;;;;;;;7.10;3.50;;;;;;;;;;107549;1250;62018;-81
2023/07/31 08:38:02;;;;;;;5.70;2.40;;;;;;;;;;107711;1253;62051;-80
2023/07/31 08:40:29;;;;;;;5.00;2.30;;;;;;;;;;107535;1250;62169;-80
2023/07/31 08:42:56;;;;;;;8.20;2.50;;;;;;;;;;107520;1251;62255;-80
2023/07/31 08:45:23;;;;;;;6.50;2.80;;;;;;;;;;107485;1251;60077;-80
2023/07/31 08:47:50;;;;;;;5.80;2.80;;;;;;;;;;107542;1253;62130;-80
2023/07/31 08:50:17;;;;;;;7.80;2.50;;;;;;;;;;107471;1251;62277;-80
2023/07/31 08:52:45;;;;;;;10.80;2.70;;;;;;;;;;107571;1251;62062;-80
2023/07/31 08:55:11;;;;;;;6.60;2.30;;;;;;;;;;107549;1251;62591;-80
2023/07/31 08:57:37;;;;;;;7.40;2.50;;;;;;;;;;107538;1251;62152;-80
2023/07/31 09:00:05;;;;;;;3.80;2.50;;;;;;;;;;107476;1253;59929;-80
2023/07/31 09:02:38;;;;;;;10.20;2.90;;;;;;;;;;108205;1251;62061;-80
2023/07/31 09:05:06;;;;;;;5.80;2.60;;;;;;;;;;107610;1254;62131;-80
2023/07/31 09:07:33;;;;;;;3.70;2.20;;;;;;;;;;107584;1251;62047;-80
2023/07/31 09:09:59;;;;;;;4.60;2.70;;;;;;;;;;107495;1251;62143;-80
2023/07/31 09:12:26;;;;;;;8.60;3.10;;;;;;;;;;107472;1251;60582;-80
2023/07/31 09:14:52;;;;;;;6.00;2.30;;;;;;;;;;107424;1254;62123;-81
2023/07/31 09:17:28;;;;;;;4.40;2.30;;;;;;;;;;107568;1255;62095;-81
2023/07/31 09:19:55;;;;;;;3.80;1.80;;;;;;;;;;107415;1251;62121;-80
2023/07/31 09:22:35;;;;;;;7.00;2.90;;;;;;;;;;107540;1251;62163;-80
2023/07/31 09:25:20;;;;;;;6.50;2.70;;;;;;;;;;107379;1254;62041;-81
2023/07/31 09:27:59;;;;;;;5.60;2.40;;;;;;;;;;107237;1251;61951;-81
2023/07/31 09:30:26;;;;;;;3.90;2.00;;;;;;;;;;107320;1251;63056;-81
2023/07/31 09:33:02;;;;;;;2.80;1.70;;;;;;;;;;107283;1251;62381;-81
2023/07/31 09:35:29;;;;;;;4.10;1.80;;;;;;;;;;107242;1254;61951;-81
2023/07/31 09:37:59;;;;;;;2.70;1.40;;;;;;;;;;107443;1251;62002;-81
2023/07/31 09:40:26;;;;;;;3.50;1.70;;;;;;;;;;107252;1251;62007;-81
2023/07/31 09:42:57;;;;;;;4.80;1.70;;;;;;;;;;107363;1251;62020;-81
2023/07/31 09:45:23;;;;;;;4.10;1.30;;;;;;;;;;107235;1254;62147;-81
2023/07/31 09:47:50;;;;;;;3.00;1.70;;;;;;;;;;107152;1251;62143;-81
2023/07/31 09:50:16;;;;;;;6.30;3.10;;;;;;;;;;107158;1254;62143;-82
2023/07/31 09:52:43;;;;;;;5.50;2.30;;;;;;;;;;107216;1251;62024;-81
2023/07/31 09:55:09;;;;;;;3.60;1.80;;;;;;;;;;107273;1251;62152;-81
2023/07/31 09:57:45;;;;;;;5.10;2.00;;;;;;;;;;107273;1251;62066;-81
2023/07/31 10:00:12;;;;;;;5.50;1.40;;;;;;;;;;107179;1251;62090;-82
2023/07/31 10:02:39;;;;;;;5.70;2.80;;;;;;;;;;107283;1252;62085;-81
2023/07/31 10:05:05;;;;;;;6.30;2.30;;;;;;;;;;107297;1251;62588;-81
2023/07/31 10:07:35;;;;;;;3.30;1.40;;;;;;;;;;107213;1251;62051;-81
2023/07/31 10:10:02;;;;;;;3.60;1.40;;;;;;;;;;107196;1251;62042;-81
2023/07/31 10:12:28;;;;;;;6.10;1.80;;;;;;;;;;107214;1251;62028;-81
2023/07/31 10:14:55;;;;;;;3.60;1.70;;;;;;;;;;107293;1251;61118;-81
2023/07/31 10:17:22;;;;;;;3.10;1.70;;;;;;;;;;107241;1253;62135;-81
2023/07/31 10:19:51;;;;;;;11.00;2.40;;;;;;;;;;107198;1254;62613;-81
2023/07/31 10:22:19;;;;;;;3.90;2.00;;;;;;;;;;107274;1250;62120;-81
2023/07/31 10:24:45;;;;;;;4.30;1.90;;;;;;;;;;107247;1249;62025;-81
2023/07/31 10:27:12;;;;;;;3.50;1.70;;;;;;;;;;107203;1254;63013;-81
2023/07/31 10:29:39;;;;;;;2.90;1.70;;;;;;;;;;107172;1250;62034;-81
2023/07/31 10:32:08;;;;;;;5.50;1.70;;;;;;;;;;107301;1250;62010;-82
2023/07/31 10:34:34;;;;;;;7.00;1.70;;;;;;;;;;107277;1253;62115;-83
2023/07/31 10:37:20;;;;;;;3.30;1.80;;;;;;;;;;107339;1250;62105;-82
2023/07/31 10:39:54;;;;;;;5.20;1.40;;;;;;;;;;107368;1251;62049;-81
2023/07/31 10:42:25;;;;;;;4.00;1.70;;;;;;;;;;107302;1249;62028;-82
2023/07/31 10:44:52;;;;;;;4.80;1.80;;;;;;;;;;107257;1250;62152;-82
2023/07/31 10:47:18;;;;;;;2.20;1.00;;;;;;;;;;107362;1250;62027;-81
2023/07/31 10:49:46;;;;;;;2.80;1.60;;;;;;;;;;107459;1249;61923;-82
2023/07/31 10:52:12;;;;;;;6.00;1.60;;;;;;;;;;109879;1249;59680;-82
2023/07/31 10:54:39;;;;;;;5.40;1.80;;;;;;;;;;109812;1250;59946;-82
2023/07/31 10:57:25;;;;;;;4.10;1.90;;;;;;;;;;109796;1251;59679;-81
2023/07/31 10:59:51;;;;;;;6.00;1.50;;;;;;;;;;109788;1249;59972;-82
2023/07/31 11:02:30;;;;;;;4.70;1.90;;;;;;;;;;109756;1250;59777;-82
2023/07/31 11:05:06;;;;;;;2.50;1.70;;;;;;;;;;109794;1249;59672;-82
2023/07/31 11:07:48;;;;;;;4.70;1.70;;;;;;;;;;107935;1250;62117;-82
2023/07/31 11:10:18;;;;;;;4.00;1.70;;;;;;;;;;107907;1251;61977;-81
2023/07/31 11:12:47;;;;;;;3.70;1.50;;;;;;;;;;107381;1251;62220;-82
2023/07/31 11:15:15;;;;;;;3.30;2.00;;;;;;;;;;107689;1253;60953;-81
2023/07/31 11:17:41;;;;;;;3.80;1.80;;;;;;;;;;107608;1250;62034;-81
2023/07/31 11:20:08;;;;;;;2.80;1.80;;;;;;;;;;107435;1251;60698;-81
2023/07/31 11:22:35;;;;;;;5.20;2.00;;;;;;;;;;107458;1249;62016;-81
2023/07/31 11:25:03;;;;;;;6.90;1.80;;;;;;;;;;108069;1249;62149;-81
2023/07/31 11:27:30;;;;;;;4.50;1.70;;;;;;;;;;107629;1254;62024;-81
2023/07/31 11:30:03;;;;;;;4.20;1.80;;;;;;;;;;107518;1253;62147;-81
2023/07/31 11:32:29;;;;;;;4.40;1.70;;;;;;;;;;107447;1250;62150;-81
2023/07/31 11:34:55;;;;;;;2.70;1.20;;;;;;;;;;107389;1250;62038;-82
2023/07/31 11:37:22;;;;;;;4.70;2.40;;;;;;;;;;107450;1251;62144;-82
2023/07/31 11:39:58;;;;;;;2.00;1.30;;;;;;;;;;107505;1252;62126;-82
2023/07/31 11:42:25;;;;;;;2.50;1.40;;;;;;;;;;107843;1251;62065;-82
2023/07/31 11:44:51;;;;;;;3.00;1.60;;;;;;;;;;107581;1249;62027;-82
2023/07/31 11:47:17;;;;;;;5.10;2.00;;;;;;;;;;107413;1251;64131;-82
2023/07/31 11:49:44;;;;;;;6.50;1.70;;;;;;;;;;107438;1251;62161;-81
2023/07/31 11:52:10;;;;;;;4.80;2.30;;;;;;;;;;107472;1251;62074;-81
2023/07/31 11:54:37;;;;;;;4.00;2.00;;;;;;;;;;107459;1250;62056;-82
2023/07/31 11:57:03;;;;;;;2.30;1.60;;;;;;;;;;107430;1249;62178;-82
2023/07/31 11:59:30;;;;;;;3.90;1.40;;;;;;;;;;107439;1253;62076;-82
2023/07/31 12:01:56;;;;;;;3.50;2.90;;;;;;;;;;107489;1249;62197;-82
2023/07/31 12:04:23;;;;;;;5.00;1.90;;;;;;;;;;107429;1250;61917;-83
2023/07/31 12:06:50;;;;;;;2.20;1.30;;;;;;;;;;107419;1251;61996;-82
2023/07/31 12:09:16;;;;;;;5.20;1.70;;;;;;;;;;108257;1249;62666;-84
2023/07/31 12:11:44;;;;;;;2.70;1.60;;;;;;;;;;107514;1253;62731;-82
2023/07/31 12:14:21;;;;;;;6.60;1.50;;;;;;;;;;107655;1250;62167;-83
2023/07/31 12:16:47;;;;;;;2.80;1.70;;;;;;;;;;107418;1249;62151;-82
2023/07/31 12:19:13;;;;;;;3.10;1.80;;;;;;;;;;107331;1250;62044;-81
2023/07/31 12:21:40;;;;;;;2.80;1.60;;;;;;;;;;107711;1251;62302;-81
2023/07/31 12:24:06;;;;;;;3.70;1.70;;;;;;;;;;107656;1254;62024;-82
2023/07/31 12:26:33;;;;;;;1.80;1.30;;;;;;;;;;107484;1251;62152;-83
2023/07/31 12:29:00;;;;;;;3.60;1.60;;;;;;;;;;107534;1250;62153;-83
2023/07/31 12:31:27;;;;;;;4.40;1.40;;;;;;;;;;107566;1254;61870;-82
2023/07/31 12:33:53;;;;;;;2.70;1.50;;;;;;;;;;107480;1250;62048;-82
2023/07/31 12:36:20;;;;;;;6.00;2.20;;;;;;;;;;107646;1254;61931;-82
2023/07/31 12:38:47;;;;;;;4.70;2.70;;;;;;;;;;107415;1250;62068;-82
2023/07/31 12:41:13;;;;;;;3.20;1.60;;;;;;;;;;107412;1251;63182;-83
2023/07/31 12:43:40;;;;;;;3.40;1.30;;;;;;;;;;107430;1250;62041;-82
2023/07/31 12:46:07;;;;;;;2.70;1.50;;;;;;;;;;107402;1249;62048;-82
2023/07/31 12:48:34;;;;;;;3.00;1.70;;;;;;;;;;107493;1249;62033;-82
2023/07/31 12:51:00;;;;;;;2.20;1.50;;;;;;;;;;107723;1254;62152;-82
2023/07/31 12:53:27;;;;;;;3.70;1.50;;;;;;;;;;107446;1251;62033;-82
2023/07/31 12:55:55;;;;;;;5.30;1.30;;;;;;;;;;107412;1250;62367;-82
2023/07/31 12:58:21;;;;;;;;;;;;;;;;;;107559;1250;62023;-83
2023/07/31 13:00:47;;;;;;;5.80;2.20;;;;;;;;;;107341;1253;62159;-82
2023/07/31 13:03:14;;;;;;;4.00;2.30;;;;;;;;;;107529;1249;63105;-82
2023/07/31 13:05:40;;;;;;;6.50;2.00;;;;;;;;;;107382;1249;62045;-82
2023/07/31 13:08:07;;;;;;;2.30;1.80;;;;;;;;;;107690;1249;62006;-82
2023/07/31 13:10:33;;;;;;;4.20;1.80;;;;;;;;;;107670;1249;62064;-82
2023/07/31 13:13:00;;;;;;;3.70;1.80;;;;;;;;;;107426;1251;61943;-82
2023/07/31 13:15:26;;;;;;;3.00;1.70;;;;;;;;;;107677;1250;62173;-82
2023/07/31 13:17:52;;;;;;;2.70;1.70;;;;;;;;;;107318;1252;62074;-82
2023/07/31 13:20:19;;;;;;;5.40;2.80;;;;;;;;;;107596;1249;62032;-82
2023/07/31 13:22:45;;;;;;;5.90;2.10;;;;;;;;;;107406;1253;62269;-81
2023/07/31 13:25:11;;;;;;;4.90;3.50;;;;;;;;;;107340;1253;62054;-81
2023/07/31 13:27:38;;;;;;;9.40;2.10;;;;;;;;;;107407;1249;62060;-81
2023/07/31 13:30:04;;;;;;;10.80;3.20;;;;;;;;;;107309;1253;62004;-81
2023/07/31 13:32:31;;;;;;;5.30;2.00;;;;;;;;;;107353;1253;62599;-81
2023/07/31 13:34:57;;;;;;;4.00;1.50;;;;;;;;;;107314;1253;62080;-81
2023/07/31 13:37:24;;;;;;;4.30;1.70;;;;;;;;;;107310;1253;62027;-81
2023/07/31 13:39:50;;;;;;;4.50;1.70;;;;;;;;;;107379;1254;62124;-81
2023/07/31 13:42:16;;;;;;;3.00;1.60;;;;;;;;;;107374;1251;62620;-81
2023/07/31 13:44:43;;;;;;;2.50;1.60;;;;;;;;;;107363;1250;62005;-81
2023/07/31 13:47:09;;;;;;;2.80;1.70;;;;;;;;;;107328;1249;62146;-81
2023/07/31 13:49:36;;;;;;;3.20;1.60;;;;;;;;;;107355;1254;62140;-81
2023/07/31 13:52:02;;;;;;;8.10;2.70;;;;;;;;;;108064;1251;62152;-81
2023/07/31 13:54:29;;;;;;;5.30;2.20;;;;;;;;;;107415;1250;62149;-81
2023/07/31 13:56:55;;;;;;;2.90;1.20;;;;;;;;;;107381;1250;62078;-81
2023/07/31 13:59:21;;;;;;;4.60;2.00;;;;;;;;;;107539;1250;62095;-81
2023/07/31 14:01:48;;;;;;;3.40;1.50;;;;;;;;;;107661;1250;62130;-81
2023/07/31 14:04:14;;;;;;;4.10;2.00;;;;;;;;;;107646;1249;60089;-81
2023/07/31 14:06:41;;;;;;;2.90;1.70;;;;;;;;;;107478;1249;60262;-81
2023/07/31 14:09:07;;;;;;;4.20;1.80;;;;;;;;;;107415;1249;62270;-81
2023/07/31 14:11:33;;;;;;;3.90;1.70;;;;;;;;;;107342;1251;61978;-82
2023/07/31 14:14:01;;;;;;;3.80;2.20;;;;;;;;;;107311;1250;62030;-82
2023/07/31 14:16:28;;;;;;;4.80;1.70;;;;;;;;;;107353;1249;61911;-81
2023/07/31 14:18:54;;;;;;;3.90;1.60;;;;;;;;;;107307;1253;61919;-81
2023/07/31 14:21:21;;;;;;;5.50;1.90;;;;;;;;;;107389;1252;62153;-81
2023/07/31 14:23:47;;;;;;;4.20;1.40;;;;;;;;;;107430;1249;62553;-81
2023/07/31 14:26:13;;;;;;;7.50;1.70;;;;;;;;;;107304;1249;63241;-81
2023/07/31 14:28:40;;;;;;;4.70;2.00;;;;;;;;;;107387;1254;62164;-81